createdAt,value
2022-09-04T00:00:48.892Z,15.86
2022-09-04T00:03:32.057Z,15.88
2022-09-04T00:06:05.460Z,15.79
2022-09-04T00:08:59.530Z,15.83
2022-09-04T00:11:41.513Z,15.77
2022-09-04T00:14:15.308Z,15.63
2022-09-04T00:16:48.029Z,15.71
2022-09-04T00:19:24.341Z,15.60
2022-09-04T00:21:57.105Z,15.60
2022-09-04T00:24:26.759Z,15.59
2022-09-04T00:27:00.328Z,15.51
2022-09-04T00:29:40.381Z,15.44
2022-09-04T00:32:21.228Z,15.31
2022-09-04T00:35:05.479Z,15.23
2022-09-04T00:37:38.149Z,15.14
2022-09-04T00:40:11.278Z,15.08
2022-09-04T00:42:55.877Z,15.10
2022-09-04T00:45:37.184Z,15.04
2022-09-04T00:48:20.757Z,15.04
2022-09-04T00:51:17.549Z,15.03
2022-09-04T00:54:05.769Z,15.03
2022-09-04T00:56:59.739Z,14.88
2022-09-04T00:59:43.260Z,14.86
2022-09-04T01:02:24.667Z,14.80
2022-09-04T01:05:04.603Z,14.70
2022-09-04T01:07:48.908Z,14.71
2022-09-04T01:10:36.673Z,14.74
2022-09-04T01:13:10.330Z,14.69
2022-09-04T01:15:45.143Z,14.68
2022-09-04T01:18:19.930Z,14.65
2022-09-04T01:20:57.353Z,14.65
2022-09-04T01:23:55.435Z,14.68
2022-09-04T01:26:33.989Z,14.63
2022-09-04T01:29:18.809Z,14.62
2022-09-04T01:31:54.901Z,14.67
2022-09-04T01:34:36.702Z,14.67
2022-09-04T01:37:19.084Z,14.61
2022-09-04T01:39:56.978Z,14.60
2022-09-04T01:42:38.580Z,14.66
2022-09-04T01:45:07.767Z,14.64
2022-09-04T01:47:44.488Z,14.66
2022-09-04T01:50:17.681Z,14.69
2022-09-04T01:52:54.734Z,14.64
2022-09-04T01:55:31.576Z,14.73
2022-09-04T01:58:12.749Z,14.78
2022-09-04T02:00:53.720Z,14.67
2022-09-04T02:03:32.764Z,14.76
2022-09-04T02:06:09.309Z,14.78
2022-09-04T02:08:49.519Z,14.68
2022-09-04T02:11:19.932Z,14.74
2022-09-04T02:14:22.252Z,14.52
2022-09-04T02:17:05.048Z,14.60
2022-09-04T02:19:56.264Z,14.56
2022-09-04T02:22:33.950Z,14.51
2022-09-04T02:25:08.609Z,14.34
2022-09-04T02:27:45.076Z,14.31
2022-09-04T02:30:18.944Z,14.23
2022-09-04T02:32:53.698Z,14.23
2022-09-04T02:35:31.416Z,14.15
2022-09-04T02:38:11.934Z,14.10
2022-09-04T02:40:49.406Z,14.11
2022-09-04T02:43:28.994Z,14.05
2022-09-04T02:46:05.671Z,14.10
2022-09-04T02:48:46.547Z,14.04
2022-09-04T02:51:38.718Z,13.98
2022-09-04T02:54:17.862Z,13.95
2022-09-04T02:56:53.509Z,13.98
2022-09-04T02:59:34.992Z,14.04
2022-09-04T03:02:06.368Z,13.98
2022-09-04T03:04:41.292Z,13.96
2022-09-04T03:07:15.644Z,13.96
2022-09-04T03:09:47.811Z,13.96
2022-09-04T03:12:30.934Z,13.95
2022-09-04T03:15:09.268Z,13.92
2022-09-04T03:17:45.982Z,13.85
2022-09-04T03:20:20.739Z,13.81
2022-09-04T03:22:55.654Z,13.73
2022-09-04T03:25:46.585Z,13.76
2022-09-04T03:28:33.186Z,13.69
2022-09-04T03:31:15.793Z,13.62
2022-09-04T03:33:49.987Z,13.51
2022-09-04T03:36:24.656Z,13.48
2022-09-04T03:39:02.867Z,13.52
2022-09-04T03:41:41.121Z,13.55
2022-09-04T03:44:20.810Z,13.61
2022-09-04T03:46:58.920Z,13.61
2022-09-04T03:49:44.150Z,13.64
2022-09-04T03:52:21.372Z,13.66
2022-09-04T03:55:07.048Z,13.78
2022-09-04T03:57:49.384Z,13.83
2022-09-04T04:00:20.184Z,13.88
2022-09-04T04:03:08.871Z,13.84
2022-09-04T04:05:49.517Z,13.80
2022-09-04T04:09:04.140Z,13.65
2022-09-04T04:11:47.203Z,13.57
2022-09-04T04:14:38.363Z,13.60
2022-09-04T04:17:22.387Z,13.41
2022-09-04T04:20:05.523Z,13.23
2022-09-04T04:22:52.555Z,13.25
2022-09-04T04:25:43.156Z,13.22
2022-09-04T04:28:31.571Z,13.12
2022-09-04T04:31:12.263Z,13.03
2022-09-04T04:33:50.343Z,12.92
2022-09-04T04:36:29.205Z,12.94
2022-09-04T04:39:18.543Z,13.03
2022-09-04T04:42:10.203Z,13.12
2022-09-04T04:45:10.724Z,13.28
2022-09-04T04:47:57.146Z,13.44
2022-09-04T04:50:36.857Z,13.40
2022-09-04T04:53:14.506Z,13.54
2022-09-04T04:55:51.603Z,13.64
2022-09-04T04:58:31.531Z,13.58
2022-09-04T05:01:07.295Z,13.64
2022-09-04T05:03:47.864Z,13.73
2022-09-04T05:06:23.631Z,13.67
2022-09-04T05:08:56.932Z,13.80
2022-09-04T05:11:36.701Z,13.85
2022-09-04T05:14:21.241Z,14.00
2022-09-04T05:16:56.601Z,13.99
2022-09-04T05:19:33.864Z,14.17
2022-09-04T05:22:10.963Z,14.09
2022-09-04T05:24:55.749Z,14.20
2022-09-04T05:28:04.442Z,14.28
2022-09-04T05:30:43.821Z,14.30
2022-09-04T05:33:19.554Z,14.48
2022-09-04T05:35:54.579Z,14.56
2022-09-04T05:38:32.068Z,14.39
2022-09-04T05:41:07.648Z,14.58
2022-09-04T05:43:51.768Z,14.45
2022-09-04T05:46:39.844Z,14.60
2022-09-04T05:49:25.338Z,14.69
2022-09-04T05:52:09.834Z,14.66
2022-09-04T05:55:14.852Z,14.64
2022-09-04T05:57:57.293Z,14.55
2022-09-04T06:00:31.873Z,14.66
2022-09-04T06:03:48.357Z,14.80
2022-09-04T06:06:23.707Z,14.90
2022-09-04T06:09:25.237Z,15.00
2022-09-04T06:12:19.316Z,14.91
2022-09-04T06:15:04.790Z,15.01
2022-09-04T06:17:49.526Z,14.99
2022-09-04T06:20:46.909Z,14.96
2022-09-04T06:23:27.236Z,15.14
2022-09-04T06:26:21.665Z,15.20
2022-09-04T06:29:05.809Z,15.37
2022-09-04T06:32:06.323Z,15.50
2022-09-04T06:35:00.826Z,15.67
2022-09-04T06:37:38.638Z,15.60
2022-09-04T06:40:31.437Z,15.63
2022-09-04T06:43:17.288Z,15.68
2022-09-04T06:45:58.940Z,15.77
2022-09-04T06:48:40.707Z,15.79
2022-09-04T06:51:27.106Z,15.91
2022-09-04T06:54:11.318Z,15.90
2022-09-04T06:56:56.027Z,16.04
2022-09-04T07:00:12.071Z,16.16
2022-09-04T07:03:04.804Z,16.31
2022-09-04T07:05:41.581Z,16.48
2022-09-04T07:08:20.145Z,16.56
2022-09-04T07:11:00.745Z,16.71
2022-09-04T07:13:55.664Z,16.80
2022-09-04T07:16:34.037Z,17.01
2022-09-04T07:19:21.967Z,17.12
2022-09-04T07:22:04.009Z,17.31
2022-09-04T07:24:46.246Z,17.44
2022-09-04T07:27:22.043Z,17.57
2022-09-04T07:29:56.017Z,17.52
2022-09-04T07:32:31.193Z,17.57
2022-09-04T07:35:08.044Z,17.68
2022-09-04T07:37:44.659Z,17.73
2022-09-04T07:40:17.789Z,17.70
2022-09-04T07:42:52.318Z,17.67
2022-09-04T07:45:30.155Z,17.74
2022-09-04T07:48:08.877Z,17.71
2022-09-04T07:50:40.357Z,17.90
2022-09-04T07:53:20.853Z,18.00
2022-09-04T07:55:52.975Z,18.06
2022-09-04T07:58:49.531Z,18.00
2022-09-04T08:01:28.444Z,18.07
2022-09-04T08:04:16.363Z,18.11
2022-09-04T08:06:50.692Z,18.11
2022-09-04T08:09:49.621Z,18.19
2022-09-04T08:12:44.980Z,18.37
2022-09-04T08:15:20.032Z,18.35
2022-09-04T08:18:11.747Z,18.36
2022-09-04T08:20:46.494Z,18.44
2022-09-04T08:23:29.216Z,18.59
2022-09-04T08:26:14.236Z,18.61
2022-09-04T08:29:03.289Z,18.73
2022-09-04T08:31:33.645Z,18.82
2022-09-04T08:34:26.243Z,18.93
2022-09-04T08:37:04.126Z,19.15
2022-09-04T08:39:37.573Z,19.24
2022-09-04T08:42:42.184Z,19.30
2022-09-04T08:46:04.593Z,19.40
2022-09-04T08:49:24.562Z,19.53
2022-09-04T08:52:43.055Z,19.68
2022-09-04T08:55:33.717Z,19.78
2022-09-04T08:58:48.295Z,20.09
2022-09-04T09:01:46.136Z,20.32
2022-09-04T09:04:36.345Z,20.48
2022-09-04T09:07:38.705Z,20.69
2022-09-04T09:10:36.700Z,20.83
2022-09-04T09:13:34.954Z,20.93
2022-09-04T09:16:26.021Z,21.05
2022-09-04T09:19:22.873Z,21.23
2022-09-04T09:22:12.462Z,21.45
2022-09-04T09:25:15.955Z,21.75
2022-09-04T09:28:16.340Z,21.97
2022-09-04T09:31:14.048Z,22.05
2022-09-04T09:34:15.545Z,21.83
2022-09-04T09:37:22.734Z,21.87
2022-09-04T09:40:29.120Z,21.81
2022-09-04T09:43:42.096Z,22.00
2022-09-04T09:46:30.162Z,22.13
2022-09-04T09:49:30.926Z,22.17
2022-09-04T09:52:22.006Z,22.33
2022-09-04T09:55:15.948Z,22.40
2022-09-04T09:58:22.133Z,22.47
2022-09-04T10:01:08.291Z,22.49
2022-09-04T10:04:11.818Z,22.43
2022-09-04T10:07:10.507Z,22.76
2022-09-04T10:10:18.069Z,22.90
2022-09-04T10:13:27.205Z,23.02
2022-09-04T10:16:31.469Z,23.31
2022-09-04T10:19:30.590Z,23.84
2022-09-04T10:22:35.092Z,24.43
2022-09-04T10:25:31.141Z,24.96
2022-09-04T10:28:26.138Z,25.35
2022-09-04T10:31:21.314Z,25.90
2022-09-04T10:34:06.477Z,26.54
2022-09-04T10:36:47.789Z,26.82
2022-09-04T10:39:45.161Z,26.90
2022-09-04T10:42:31.319Z,27.11
2022-09-04T10:45:18.489Z,27.22
2022-09-04T10:48:20.058Z,27.89
2022-09-04T10:51:16.777Z,28.19
2022-09-04T10:54:08.161Z,28.58
2022-09-04T10:56:47.249Z,28.67
2022-09-04T10:59:37.401Z,28.67
2022-09-04T11:02:35.636Z,29.06
2022-09-04T11:05:24.821Z,29.37
2022-09-04T11:08:27.934Z,29.42
2022-09-04T11:11:10.083Z,29.38
2022-09-04T11:14:09.079Z,29.17
2022-09-04T11:17:12.483Z,29.50
2022-09-04T11:20:20.644Z,29.61
2022-09-04T11:23:31.815Z,29.96
2022-09-04T11:26:54.987Z,29.85
2022-09-04T11:29:55.978Z,29.86
2022-09-04T11:33:12.056Z,30.03
2022-09-04T11:36:14.180Z,29.80
2022-09-04T11:39:20.816Z,29.68
2022-09-04T11:42:28.957Z,29.60
2022-09-04T11:45:33.075Z,29.60
2022-09-04T11:48:19.401Z,30.25
2022-09-04T11:51:06.736Z,30.44
2022-09-04T11:54:00.837Z,29.73
2022-09-04T11:56:40.212Z,29.62
2022-09-04T11:59:33.446Z,29.54
2022-09-04T12:02:28.157Z,29.40
2022-09-04T12:05:09.863Z,29.31
2022-09-04T12:07:55.420Z,29.14
2022-09-04T12:10:53.650Z,29.44
2022-09-04T12:13:47.197Z,30.19
2022-09-04T12:16:51.728Z,30.59
2022-09-04T12:20:24.153Z,30.85
2022-09-04T12:23:37.681Z,31.79
2022-09-04T12:26:30.503Z,32.23
2022-09-04T12:29:39.297Z,31.56
2022-09-04T12:32:35.247Z,31.52
2022-09-04T12:35:50.913Z,30.52
2022-09-04T12:38:40.612Z,29.81
2022-09-04T12:41:16.789Z,28.89
2022-09-04T12:44:01.655Z,28.53
2022-09-04T12:46:50.389Z,28.40
2022-09-04T12:49:43.132Z,27.96
2022-09-04T12:52:24.689Z,27.72
2022-09-04T12:55:04.975Z,27.60
2022-09-04T12:57:42.588Z,27.37
2022-09-04T13:00:15.550Z,26.99
2022-09-04T13:02:54.332Z,26.45
2022-09-04T13:05:52.911Z,26.17
2022-09-04T13:08:35.678Z,25.88
2022-09-04T13:11:19.231Z,25.87
2022-09-04T13:14:00.020Z,25.90
2022-09-04T13:16:38.512Z,26.02
2022-09-04T13:19:15.895Z,25.91
2022-09-04T13:22:07.850Z,26.03
2022-09-04T13:24:51.444Z,25.94
2022-09-04T13:27:34.657Z,25.82
2022-09-04T13:30:09.575Z,25.98
2022-09-04T13:32:54.794Z,26.05
2022-09-04T13:35:41.387Z,26.05
2022-09-04T13:38:33.555Z,25.93
2022-09-04T13:41:20.149Z,25.99
2022-09-04T13:44:06.120Z,26.04
2022-09-04T13:46:38.867Z,25.99
2022-09-04T13:49:14.905Z,26.04
2022-09-04T13:51:46.983Z,25.91
2022-09-04T13:54:20.941Z,25.98
2022-09-04T13:56:56.657Z,25.87
2022-09-04T13:59:25.972Z,25.85
2022-09-04T14:02:00.110Z,25.67
2022-09-04T14:04:36.671Z,25.79
2022-09-04T14:07:10.679Z,26.08
2022-09-04T14:09:45.191Z,26.44
2022-09-04T14:12:27.385Z,27.00
2022-09-04T14:16:03.852Z,27.97
2022-09-04T14:18:47.181Z,28.69
2022-09-04T14:21:26.641Z,28.60
2022-09-04T14:24:03.397Z,27.73
2022-09-04T14:26:42.336Z,27.38
2022-09-04T14:29:22.301Z,27.17
2022-09-04T14:32:04.495Z,26.64
2022-09-04T14:34:43.391Z,26.03
2022-09-04T14:37:30.189Z,25.67
2022-09-04T14:40:04.785Z,25.33
2022-09-04T14:42:44.356Z,25.06
2022-09-04T14:45:36.081Z,25.01
2022-09-04T14:48:10.215Z,25.24
2022-09-04T14:50:49.288Z,25.34
2022-09-04T14:53:26.343Z,25.44
2022-09-04T14:56:19.045Z,25.71
2022-09-04T14:58:51.904Z,26.45
2022-09-04T15:01:22.263Z,26.97
2022-09-04T15:03:56.936Z,27.29
2022-09-04T15:06:32.509Z,27.04
2022-09-04T15:09:23.392Z,26.33
2022-09-04T15:12:08.888Z,25.85
2022-09-04T15:14:41.013Z,25.48
2022-09-04T15:17:17.446Z,25.19
2022-09-04T15:19:55.133Z,25.10
2022-09-04T15:22:30.663Z,24.87
2022-09-04T15:25:08.965Z,24.61
2022-09-04T15:27:47.171Z,24.33
2022-09-04T15:30:21.615Z,24.29
2022-09-04T15:32:52.141Z,24.19
2022-09-04T15:35:26.900Z,24.11
2022-09-04T15:38:07.541Z,23.89
2022-09-04T15:41:05.816Z,23.60
2022-09-04T15:43:38.904Z,23.41
2022-09-04T15:46:14.670Z,23.11
2022-09-04T15:48:53.376Z,23.04
2022-09-04T15:51:29.467Z,22.88
2022-09-04T15:54:22.221Z,22.86
2022-09-04T15:57:01.218Z,22.86
2022-09-04T15:59:43.716Z,22.66
2022-09-04T16:02:24.638Z,22.61
2022-09-04T16:05:03.385Z,22.60
2022-09-04T16:07:40.482Z,22.59
2022-09-04T16:10:17.328Z,22.38
2022-09-04T16:12:58.047Z,22.40
2022-09-04T16:15:30.713Z,22.24
2022-09-04T16:18:02.685Z,21.97
2022-09-04T16:20:37.519Z,21.87
2022-09-04T16:23:09.475Z,21.65
2022-09-04T16:25:40.675Z,21.60
2022-09-04T16:28:20.236Z,21.43
2022-09-04T16:30:55.331Z,21.48
2022-09-04T16:33:28.521Z,21.33
2022-09-04T16:36:03.145Z,21.27
2022-09-04T16:38:39.152Z,21.14
2022-09-04T16:41:13.445Z,20.89
2022-09-04T16:44:09.100Z,20.87
2022-09-04T16:46:40.299Z,20.88
2022-09-04T16:49:19.817Z,20.79
2022-09-04T16:51:52.072Z,20.82
2022-09-04T16:54:28.632Z,20.73
2022-09-04T16:57:12.307Z,20.73
2022-09-04T16:59:46.489Z,20.54
2022-09-04T17:02:21.769Z,20.56
2022-09-04T17:05:00.736Z,20.52
2022-09-04T17:07:35.918Z,20.49
2022-09-04T17:10:08.791Z,20.44
2022-09-04T17:12:52.703Z,20.42
2022-09-04T17:15:32.132Z,20.37
2022-09-04T17:18:06.427Z,20.29
2022-09-04T17:22:44.830Z,20.21
2022-09-04T17:28:54.384Z,19.95
2022-09-04T17:29:10.279Z,19.68
2022-09-04T17:29:36.262Z,19.58
2022-09-04T17:32:14.299Z,19.53
2022-09-04T17:40:41.824Z,19.42
2022-09-04T17:40:57.404Z,19.41
2022-09-04T17:41:36.215Z,19.41
2022-09-04T17:44:32.725Z,19.39
2022-09-04T17:47:14.189Z,19.34
2022-09-04T17:49:47.004Z,19.40
2022-09-04T17:52:24.029Z,19.38
2022-09-04T17:54:52.585Z,19.38
2022-09-04T17:57:28.566Z,19.36
2022-09-04T18:00:05.494Z,19.38
2022-09-04T18:02:42.724Z,19.38
2022-09-04T18:05:20.321Z,19.42
2022-09-04T18:08:10.034Z,19.53
2022-09-04T18:10:52.035Z,19.64
2022-09-04T18:13:37.699Z,19.64
2022-09-04T18:16:18.366Z,19.59
2022-09-04T18:18:52.149Z,19.56
2022-09-04T18:21:26.789Z,19.52
2022-09-04T18:24:01.468Z,19.59
2022-09-04T18:26:40.350Z,19.67
2022-09-04T18:31:49.558Z,19.69
2022-09-04T18:37:22.864Z,19.54
2022-09-04T18:37:26.390Z,19.68
2022-09-04T18:38:16.607Z,19.46
2022-09-04T18:44:14.502Z,19.35
2022-09-04T18:50:20.229Z,19.21
2022-09-04T18:50:30.191Z,19.15
2022-09-04T18:50:43.188Z,19.17
2022-09-04T18:52:21.922Z,19.21
2022-09-04T18:54:54.653Z,19.28
2022-09-04T18:58:09.022Z,19.25
2022-09-04T19:00:45.691Z,19.20
2022-09-04T19:03:19.294Z,19.15
2022-09-04T19:05:52.882Z,19.10
2022-09-04T19:08:32.193Z,19.18
2022-09-04T19:11:09.430Z,19.22
2022-09-04T19:13:53.964Z,19.17
2022-09-04T19:16:29.553Z,19.21
2022-09-04T19:19:03.314Z,19.21
2022-09-04T19:21:37.715Z,19.18
2022-09-04T19:24:18.402Z,19.17
2022-09-04T19:27:20.537Z,19.18
2022-09-04T19:30:03.172Z,19.15
2022-09-04T19:33:02.608Z,19.06
2022-09-04T19:35:36.982Z,19.07
2022-09-04T19:43:51.217Z,19.14
2022-09-04T19:46:05.352Z,18.93
2022-09-04T19:46:15.633Z,18.85
2022-09-04T19:47:27.639Z,18.88
2022-09-04T19:53:18.547Z,18.86
2022-09-04T19:53:32.833Z,18.91
2022-09-04T19:55:48.515Z,18.78
2022-09-04T19:58:21.967Z,18.81
2022-09-04T20:00:56.296Z,18.83
2022-09-04T20:03:30.452Z,18.78
2022-09-04T20:06:20.220Z,18.82
2022-09-04T20:08:54.630Z,18.76
2022-09-04T20:11:34.988Z,18.83
2022-09-04T20:14:14.347Z,18.71
2022-09-04T20:16:52.624Z,18.74
2022-09-04T20:19:27.811Z,18.72
2022-09-04T20:22:02.000Z,18.66
2022-09-04T20:24:39.712Z,18.60
2022-09-04T20:27:15.950Z,18.61
2022-09-04T20:29:55.287Z,18.53
2022-09-04T20:32:28.550Z,18.59
2022-09-04T20:35:13.591Z,18.53
2022-09-04T20:37:46.236Z,18.55
2022-09-04T20:40:32.077Z,18.51
2022-09-04T20:43:18.883Z,18.45
2022-09-04T20:48:47.050Z,18.42
2022-09-04T20:52:53.681Z,18.38
2022-09-04T20:52:55.270Z,18.40
2022-09-04T20:55:19.876Z,18.37
2022-09-04T21:03:07.239Z,18.27
2022-09-04T21:03:13.349Z,18.25
2022-09-04T21:04:05.155Z,18.29
2022-09-04T21:06:39.879Z,18.23
2022-09-04T21:09:22.761Z,18.17
2022-09-04T21:11:54.534Z,18.28
2022-09-04T21:14:39.768Z,18.30
2022-09-04T21:17:53.120Z,18.17
2022-09-04T21:21:00.001Z,18.22
2022-09-04T21:24:02.945Z,18.23
2022-09-04T21:26:49.188Z,18.24
2022-09-04T21:29:50.630Z,18.17
2022-09-04T21:32:34.913Z,18.25
2022-09-04T21:35:11.468Z,18.31
2022-09-04T21:37:57.053Z,18.34
2022-09-04T21:41:03.270Z,18.33
2022-09-04T21:44:07.543Z,18.36
2022-09-04T21:46:59.323Z,18.40
2022-09-04T21:50:04.918Z,18.34
2022-09-04T21:53:00.731Z,18.27
2022-09-04T21:58:52.418Z,18.25
2022-09-04T22:02:35.290Z,18.27
2022-09-04T22:02:38.116Z,18.37
2022-09-04T22:04:55.832Z,18.40
2022-09-04T22:10:06.681Z,18.43
2022-09-04T22:13:32.636Z,18.39
2022-09-04T22:13:49.327Z,18.41
2022-09-04T22:16:32.361Z,18.43
2022-09-04T22:19:38.007Z,18.42
2022-09-04T22:22:29.206Z,18.39
2022-09-04T22:25:30.769Z,18.25
2022-09-04T22:28:31.914Z,18.24
2022-09-04T22:31:31.688Z,18.23
2022-09-04T22:34:44.217Z,18.18
2022-09-04T22:37:47.194Z,18.16
2022-09-04T22:40:32.501Z,18.12
2022-09-04T22:43:14.430Z,18.14
2022-09-04T22:46:30.479Z,18.15
2022-09-04T22:49:21.812Z,18.09
2022-09-04T22:52:27.466Z,18.14
2022-09-04T22:55:36.249Z,18.18
2022-09-04T22:58:18.167Z,18.24
2022-09-04T23:01:14.589Z,18.17
2022-09-04T23:04:00.584Z,18.21
2022-09-04T23:12:23.413Z,18.21
2022-09-04T23:13:54.383Z,18.25
2022-09-04T23:13:59.759Z,18.21
2022-09-04T23:16:37.021Z,18.24
2022-09-04T23:22:06.190Z,18.25
2022-09-04T23:26:45.161Z,18.17
2022-09-04T23:26:45.506Z,18.23
2022-09-04T23:28:51.656Z,18.20
2022-09-04T23:31:38.284Z,18.18
2022-09-04T23:34:27.932Z,18.07
2022-09-04T23:37:18.693Z,18.08
2022-09-04T23:40:06.403Z,18.12
2022-09-04T23:43:12.659Z,18.12
2022-09-04T23:46:01.691Z,18.07
2022-09-04T23:48:52.938Z,18.11
2022-09-04T23:51:31.828Z,18.16
2022-09-04T23:54:24.736Z,18.17
2022-09-04T23:57:00.939Z,18.05
2022-09-04T23:59:47.360Z,17.93
